Dushan, China
Current Conditions -  °F | °C
As of 12:00 AM on Wednesday 22 Oct 2014 (Local Time) from ZUGY Reporting Station
Few Clouds Few Clouds  
Wind Chill: 54°   Ceiling: Unl
Heat Index: 54°   Visibility: 4mi
Dew Point: 54°   Wind: 2mph
Humidity: 100%   Direction: NA
Pressure: 30.27"   Gusts: NA
Location:  25.83°N, 107.55°E
Report Text: ZUGY 211600Z VRB01MPS 6000 FEW026 12/12 Q1025 NOSIG
Loading
Personal Weather Stations






























Interactive Weather Map
Tropical Storm Tracking
New forecast layout! Learn more

10-Day Weather Forecast

Advertisements
Track Severe Weather on mobile